sensor_id;sensor_type;location;lat;lon;timestamp;P1;durP1;ratioP1;P2;durP2;ratioP2
12703;SDS011;6416;52.182;7.650;2023-03-23T00:01:21;5.50;;;4.40;;
12703;SDS011;6416;52.182;7.650;2023-03-23T00:03:48;4.47;;;3.87;;
12703;SDS011;6416;52.182;7.650;2023-03-23T00:06:15;4.63;;;4.17;;
12703;SDS011;6416;52.182;7.650;2023-03-23T00:08:41;4.80;;;4.30;;
12703;SDS011;6416;52.182;7.650;2023-03-23T00:11:07;4.50;;;3.60;;
12703;SDS011;6416;52.182;7.650;2023-03-23T00:13:32;4.87;;;3.83;;
12703;SDS011;6416;52.182;7.650;2023-03-23T00:15:58;4.90;;;4.03;;
12703;SDS011;6416;52.182;7.650;2023-03-23T00:18:24;4.43;;;4.03;;
12703;SDS011;6416;52.182;7.650;2023-03-23T00:20:50;4.73;;;3.93;;
12703;SDS011;6416;52.182;7.650;2023-03-23T00:23:25;7.43;;;5.20;;
12703;SDS011;6416;52.182;7.650;2023-03-23T00:25:52;5.10;;;4.67;;
12703;SDS011;6416;52.182;7.650;2023-03-23T00:28:19;5.60;;;4.70;;
12703;SDS011;6416;52.182;7.650;2023-03-23T00:30:45;5.77;;;4.73;;
12703;SDS011;6416;52.182;7.650;2023-03-23T00:33:11;4.90;;;4.40;;
12703;SDS011;6416;52.182;7.650;2023-03-23T00:35:36;6.63;;;4.60;;
12703;SDS011;6416;52.182;7.650;2023-03-23T00:38:02;5.60;;;4.40;;
12703;SDS011;6416;52.182;7.650;2023-03-23T00:40:28;5.37;;;4.70;;
12703;SDS011;6416;52.182;7.650;2023-03-23T00:42:53;6.33;;;4.50;;
12703;SDS011;6416;52.182;7.650;2023-03-23T00:45:19;6.83;;;4.60;;
12703;SDS011;6416;52.182;7.650;2023-03-23T00:47:44;5.50;;;5.00;;
12703;SDS011;6416;52.182;7.650;2023-03-23T00:50:10;3.97;;;3.67;;
12703;SDS011;6416;52.182;7.650;2023-03-23T00:52:35;4.30;;;3.90;;
12703;SDS011;6416;52.182;7.650;2023-03-23T00:55:01;4.70;;;4.20;;
12703;SDS011;6416;52.182;7.650;2023-03-23T00:57:26;7.67;;;4.93;;
12703;SDS011;6416;52.182;7.650;2023-03-23T00:59:52;4.77;;;4.37;;
12703;SDS011;6416;52.182;7.650;2023-03-23T01:02:17;4.33;;;3.93;;
12703;SDS011;6416;52.182;7.650;2023-03-23T01:04:43;6.53;;;4.13;;
12703;SDS011;6416;52.182;7.650;2023-03-23T01:07:08;4.47;;;4.07;;
12703;SDS011;6416;52.182;7.650;2023-03-23T01:09:33;4.50;;;4.10;;
12703;SDS011;6416;52.182;7.650;2023-03-23T01:11:59;5.23;;;3.80;;
12703;SDS011;6416;52.182;7.650;2023-03-23T01:14:24;4.87;;;3.87;;
12703;SDS011;6416;52.182;7.650;2023-03-23T01:16:50;5.80;;;4.57;;
12703;SDS011;6416;52.182;7.650;2023-03-23T01:19:15;4.47;;;4.07;;
12703;SDS011;6416;52.182;7.650;2023-03-23T01:21:41;3.80;;;3.50;;
12703;SDS011;6416;52.182;7.650;2023-03-23T01:24:07;4.43;;;3.97;;
12703;SDS011;6416;52.182;7.650;2023-03-23T01:26:32;3.60;;;3.27;;
12703;SDS011;6416;52.182;7.650;2023-03-23T01:28:58;4.37;;;3.57;;
12703;SDS011;6416;52.182;7.650;2023-03-23T01:31:24;3.97;;;3.57;;
12703;SDS011;6416;52.182;7.650;2023-03-23T01:33:51;4.10;;;3.70;;
12703;SDS011;6416;52.182;7.650;2023-03-23T01:36:18;4.00;;;3.40;;
12703;SDS011;6416;52.182;7.650;2023-03-23T01:38:46;4.23;;;3.83;;
12703;SDS011;6416;52.182;7.650;2023-03-23T01:41:13;5.43;;;3.67;;
12703;SDS011;6416;52.182;7.650;2023-03-23T01:46:25;3.83;;;3.40;;
12703;SDS011;6416;52.182;7.650;2023-03-23T01:48:52;6.60;;;3.97;;
12703;SDS011;6416;52.182;7.650;2023-03-23T01:51:20;5.57;;;4.03;;
12703;SDS011;6416;52.182;7.650;2023-03-23T01:54:00;4.50;;;3.73;;
12703;SDS011;6416;52.182;7.650;2023-03-23T01:56:31;5.40;;;4.37;;
12703;SDS011;6416;52.182;7.650;2023-03-23T01:59:01;4.57;;;4.17;;
12703;SDS011;6416;52.182;7.650;2023-03-23T02:01:26;4.00;;;3.60;;
12703;SDS011;6416;52.182;7.650;2023-03-23T02:03:53;4.33;;;3.60;;
12703;SDS011;6416;52.182;7.650;2023-03-23T02:06:21;4.03;;;3.07;;
12703;SDS011;6416;52.182;7.650;2023-03-23T02:08:47;5.13;;;3.50;;
12703;SDS011;6416;52.182;7.650;2023-03-23T02:11:15;4.23;;;3.50;;
12703;SDS011;6416;52.182;7.650;2023-03-23T02:13:42;3.70;;;3.27;;
12703;SDS011;6416;52.182;7.650;2023-03-23T02:24:38;3.10;;;2.90;;
12703;SDS011;6416;52.182;7.650;2023-03-23T02:35:12;4.23;;;2.93;;
12703;SDS011;6416;52.182;7.650;2023-03-23T02:37:48;3.77;;;3.10;;
12703;SDS011;6416;52.182;7.650;2023-03-23T02:40:30;4.40;;;3.03;;
12703;SDS011;6416;52.182;7.650;2023-03-23T02:43:09;3.37;;;2.87;;
12703;SDS011;6416;52.182;7.650;2023-03-23T02:45:39;4.50;;;2.90;;
12703;SDS011;6416;52.182;7.650;2023-03-23T02:48:07;2.60;;;2.40;;
12703;SDS011;6416;52.182;7.650;2023-03-23T02:50:34;3.50;;;3.13;;
12703;SDS011;6416;52.182;7.650;2023-03-23T02:53:02;3.27;;;2.97;;
12703;SDS011;6416;52.182;7.650;2023-03-23T02:55:32;3.40;;;3.10;;
12703;SDS011;6416;52.182;7.650;2023-03-23T02:57:59;3.07;;;2.77;;
12703;SDS011;6416;52.182;7.650;2023-03-23T03:00:25;4.23;;;3.30;;
12703;SDS011;6416;52.182;7.650;2023-03-23T03:02:51;4.20;;;2.83;;
12703;SDS011;6416;52.182;7.650;2023-03-23T03:11:07;3.13;;;2.57;;
12703;SDS011;6416;52.182;7.650;2023-03-23T03:19:01;5.60;;;3.00;;
12703;SDS011;6416;52.182;7.650;2023-03-23T03:21:40;3.30;;;3.00;;
12703;SDS011;6416;52.182;7.650;2023-03-23T03:24:09;5.00;;;2.50;;
12703;SDS011;6416;52.182;7.650;2023-03-23T03:26:41;2.93;;;2.70;;
12703;SDS011;6416;52.182;7.650;2023-03-23T03:29:09;2.93;;;2.60;;
12703;SDS011;6416;52.182;7.650;2023-03-23T03:31:36;2.77;;;2.57;;
12703;SDS011;6416;52.182;7.650;2023-03-23T03:34:04;2.60;;;2.40;;
12703;SDS011;6416;52.182;7.650;2023-03-23T03:36:31;2.60;;;2.40;;
12703;SDS011;6416;52.182;7.650;2023-03-23T03:38:58;2.67;;;2.47;;
12703;SDS011;6416;52.182;7.650;2023-03-23T03:41:24;2.93;;;2.37;;
12703;SDS011;6416;52.182;7.650;2023-03-23T03:43:49;2.37;;;2.17;;
12703;SDS011;6416;52.182;7.650;2023-03-23T03:46:15;3.50;;;2.80;;
12703;SDS011;6416;52.182;7.650;2023-03-23T03:48:40;2.50;;;2.30;;
12703;SDS011;6416;52.182;7.650;2023-03-23T03:51:05;2.53;;;2.17;;
12703;SDS011;6416;52.182;7.650;2023-03-23T03:53:31;2.57;;;2.27;;
12703;SDS011;6416;52.182;7.650;2023-03-23T03:55:56;2.57;;;2.37;;
12703;SDS011;6416;52.182;7.650;2023-03-23T03:58:22;2.60;;;2.10;;
12703;SDS011;6416;52.182;7.650;2023-03-23T04:00:48;2.30;;;2.00;;
12703;SDS011;6416;52.182;7.650;2023-03-23T04:03:14;2.30;;;2.10;;
12703;SDS011;6416;52.182;7.650;2023-03-23T04:05:40;2.93;;;2.00;;
12703;SDS011;6416;52.182;7.650;2023-03-23T04:08:06;5.23;;;2.37;;
12703;SDS011;6416;52.182;7.650;2023-03-23T04:10:31;2.50;;;2.20;;
12703;SDS011;6416;52.182;7.650;2023-03-23T04:12:57;2.47;;;2.27;;
12703;SDS011;6416;52.182;7.650;2023-03-23T04:15:22;2.50;;;2.30;;
12703;SDS011;6416;52.182;7.650;2023-03-23T04:17:48;3.13;;;2.40;;
12703;SDS011;6416;52.182;7.650;2023-03-23T04:20:14;2.27;;;2.00;;
12703;SDS011;6416;52.182;7.650;2023-03-23T04:22:39;2.77;;;2.47;;
12703;SDS011;6416;52.182;7.650;2023-03-23T04:25:05;6.03;;;2.50;;
12703;SDS011;6416;52.182;7.650;2023-03-23T04:27:31;2.50;;;2.30;;
12703;SDS011;6416;52.182;7.650;2023-03-23T04:29:56;2.60;;;2.40;;
12703;SDS011;6416;52.182;7.650;2023-03-23T04:32:22;2.70;;;2.50;;
12703;SDS011;6416;52.182;7.650;2023-03-23T04:34:48;2.57;;;2.37;;
12703;SDS011;6416;52.182;7.650;2023-03-23T04:37:13;2.83;;;2.50;;
12703;SDS011;6416;52.182;7.650;2023-03-23T04:39:38;2.63;;;2.30;;
12703;SDS011;6416;52.182;7.650;2023-03-23T04:42:04;3.20;;;2.90;;
12703;SDS011;6416;52.182;7.650;2023-03-23T04:44:29;3.10;;;2.80;;
12703;SDS011;6416;52.182;7.650;2023-03-23T04:46:55;2.47;;;2.30;;
12703;SDS011;6416;52.182;7.650;2023-03-23T04:49:20;2.87;;;2.57;;
12703;SDS011;6416;52.182;7.650;2023-03-23T04:51:46;2.87;;;2.60;;
12703;SDS011;6416;52.182;7.650;2023-03-23T04:54:12;5.20;;;2.60;;
12703;SDS011;6416;52.182;7.650;2023-03-23T04:56:38;2.43;;;2.23;;
12703;SDS011;6416;52.182;7.650;2023-03-23T04:59:03;2.50;;;2.30;;
12703;SDS011;6416;52.182;7.650;2023-03-23T05:01:29;3.67;;;2.37;;
12703;SDS011;6416;52.182;7.650;2023-03-23T05:03:54;3.17;;;2.63;;
12703;SDS011;6416;52.182;7.650;2023-03-23T05:06:19;3.00;;;2.73;;
12703;SDS011;6416;52.182;7.650;2023-03-23T05:08:45;2.47;;;2.30;;
12703;SDS011;6416;52.182;7.650;2023-03-23T05:11:10;2.53;;;2.33;;
12703;SDS011;6416;52.182;7.650;2023-03-23T05:13:36;2.73;;;2.53;;
12703;SDS011;6416;52.182;7.650;2023-03-23T05:16:04;2.47;;;2.27;;
12703;SDS011;6416;52.182;7.650;2023-03-23T05:18:30;2.57;;;2.37;;
12703;SDS011;6416;52.182;7.650;2023-03-23T05:20:58;3.83;;;2.63;;
12703;SDS011;6416;52.182;7.650;2023-03-23T05:23:25;2.80;;;2.60;;
12703;SDS011;6416;52.182;7.650;2023-03-23T05:25:54;3.10;;;2.40;;
12703;SDS011;6416;52.182;7.650;2023-03-23T05:28:20;2.83;;;2.63;;
12703;SDS011;6416;52.182;7.650;2023-03-23T05:30:46;4.33;;;2.70;;
12703;SDS011;6416;52.182;7.650;2023-03-23T05:33:11;2.83;;;2.63;;
12703;SDS011;6416;52.182;7.650;2023-03-23T05:35:37;2.87;;;2.63;;
12703;SDS011;6416;52.182;7.650;2023-03-23T05:38:02;2.90;;;2.70;;
12703;SDS011;6416;52.182;7.650;2023-03-23T05:40:27;2.87;;;2.57;;
12703;SDS011;6416;52.182;7.650;2023-03-23T05:42:53;3.40;;;2.70;;
12703;SDS011;6416;52.182;7.650;2023-03-23T05:45:18;3.27;;;2.93;;
12703;SDS011;6416;52.182;7.650;2023-03-23T05:47:44;2.80;;;2.60;;
12703;SDS011;6416;52.182;7.650;2023-03-23T05:50:11;2.63;;;2.43;;
12703;SDS011;6416;52.182;7.650;2023-03-23T05:52:38;2.80;;;2.60;;
12703;SDS011;6416;52.182;7.650;2023-03-23T05:55:04;2.83;;;2.63;;
12703;SDS011;6416;52.182;7.650;2023-03-23T05:57:30;3.23;;;2.93;;
12703;SDS011;6416;52.182;7.650;2023-03-23T05:59:56;3.17;;;2.87;;
12703;SDS011;6416;52.182;7.650;2023-03-23T06:02:23;2.73;;;2.53;;
12703;SDS011;6416;52.182;7.650;2023-03-23T06:04:49;2.73;;;2.43;;
12703;SDS011;6416;52.182;7.650;2023-03-23T06:07:15;2.70;;;2.50;;
12703;SDS011;6416;52.182;7.650;2023-03-23T06:09:41;3.13;;;2.60;;
12703;SDS011;6416;52.182;7.650;2023-03-23T06:12:07;3.10;;;2.50;;
12703;SDS011;6416;52.182;7.650;2023-03-23T06:14:33;2.53;;;2.30;;
12703;SDS011;6416;52.182;7.650;2023-03-23T06:16:59;3.90;;;2.63;;
12703;SDS011;6416;52.182;7.650;2023-03-23T06:19:24;3.20;;;2.67;;
12703;SDS011;6416;52.182;7.650;2023-03-23T06:21:50;3.17;;;2.20;;
12703;SDS011;6416;52.182;7.650;2023-03-23T06:24:15;3.33;;;2.57;;
12703;SDS011;6416;52.182;7.650;2023-03-23T06:26:41;2.13;;;1.90;;
12703;SDS011;6416;52.182;7.650;2023-03-23T06:29:06;2.67;;;2.33;;
12703;SDS011;6416;52.182;7.650;2023-03-23T06:31:32;3.40;;;2.60;;
12703;SDS011;6416;52.182;7.650;2023-03-23T06:33:58;3.30;;;2.53;;
12703;SDS011;6416;52.182;7.650;2023-03-23T06:36:24;4.03;;;2.60;;
12703;SDS011;6416;52.182;7.650;2023-03-23T06:38:50;3.53;;;2.60;;
12703;SDS011;6416;52.182;7.650;2023-03-23T06:41:15;5.13;;;2.40;;
12703;SDS011;6416;52.182;7.650;2023-03-23T06:43:40;3.27;;;2.50;;
12703;SDS011;6416;52.182;7.650;2023-03-23T06:46:06;2.40;;;2.20;;
12703;SDS011;6416;52.182;7.650;2023-03-23T06:48:31;4.13;;;2.23;;
12703;SDS011;6416;52.182;7.650;2023-03-23T06:50:57;2.30;;;2.10;;
12703;SDS011;6416;52.182;7.650;2023-03-23T06:53:23;2.40;;;2.17;;
12703;SDS011;6416;52.182;7.650;2023-03-23T06:55:48;2.33;;;2.00;;
12703;SDS011;6416;52.182;7.650;2023-03-23T06:58:14;3.07;;;2.20;;
12703;SDS011;6416;52.182;7.650;2023-03-23T07:00:39;2.07;;;1.80;;
12703;SDS011;6416;52.182;7.650;2023-03-23T07:03:05;2.13;;;1.73;;
12703;SDS011;6416;52.182;7.650;2023-03-23T07:05:32;3.70;;;2.00;;
12703;SDS011;6416;52.182;7.650;2023-03-23T07:07:58;3.03;;;2.20;;
12703;SDS011;6416;52.182;7.650;2023-03-23T07:10:23;4.37;;;1.90;;
12703;SDS011;6416;52.182;7.650;2023-03-23T07:12:49;2.87;;;1.87;;
12703;SDS011;6416;52.182;7.650;2023-03-23T07:15:14;3.73;;;1.83;;
12703;SDS011;6416;52.182;7.650;2023-03-23T07:17:40;2.40;;;1.53;;
12703;SDS011;6416;52.182;7.650;2023-03-23T07:20:06;3.53;;;2.23;;
12703;SDS011;6416;52.182;7.650;2023-03-23T07:22:32;2.63;;;1.97;;
12703;SDS011;6416;52.182;7.650;2023-03-23T07:24:58;3.60;;;2.30;;
12703;SDS011;6416;52.182;7.650;2023-03-23T07:27:24;2.73;;;1.97;;
12703;SDS011;6416;52.182;7.650;2023-03-23T07:29:49;2.70;;;2.23;;
12703;SDS011;6416;52.182;7.650;2023-03-23T07:32:15;4.70;;;2.27;;
12703;SDS011;6416;52.182;7.650;2023-03-23T07:34:40;2.67;;;1.80;;
12703;SDS011;6416;52.182;7.650;2023-03-23T07:37:06;3.33;;;2.10;;
12703;SDS011;6416;52.182;7.650;2023-03-23T07:39:31;2.73;;;1.80;;
12703;SDS011;6416;52.182;7.650;2023-03-23T07:41:57;2.20;;;1.83;;
12703;SDS011;6416;52.182;7.650;2023-03-23T07:44:22;4.23;;;2.37;;
12703;SDS011;6416;52.182;7.650;2023-03-23T07:46:48;3.57;;;2.30;;
12703;SDS011;6416;52.182;7.650;2023-03-23T07:49:14;3.57;;;1.97;;
12703;SDS011;6416;52.182;7.650;2023-03-23T07:51:39;3.07;;;1.80;;
12703;SDS011;6416;52.182;7.650;2023-03-23T07:54:05;3.37;;;1.90;;
12703;SDS011;6416;52.182;7.650;2023-03-23T07:56:31;3.73;;;2.10;;
12703;SDS011;6416;52.182;7.650;2023-03-23T07:58:57;2.93;;;2.00;;
12703;SDS011;6416;52.182;7.650;2023-03-23T08:01:22;3.20;;;2.10;;
12703;SDS011;6416;52.182;7.650;2023-03-23T08:03:48;3.87;;;2.30;;
12703;SDS011;6416;52.182;7.650;2023-03-23T08:06:14;2.63;;;2.03;;
12703;SDS011;6416;52.182;7.650;2023-03-23T08:08:39;4.33;;;1.90;;
12703;SDS011;6416;52.182;7.650;2023-03-23T08:11:04;4.27;;;2.07;;
12703;SDS011;6416;52.182;7.650;2023-03-23T08:13:30;4.10;;;1.60;;
12703;SDS011;6416;52.182;7.650;2023-03-23T08:15:56;4.53;;;2.30;;
12703;SDS011;6416;52.182;7.650;2023-03-23T08:18:21;3.90;;;2.00;;
12703;SDS011;6416;52.182;7.650;2023-03-23T08:20:47;2.60;;;1.80;;
12703;SDS011;6416;52.182;7.650;2023-03-23T08:23:12;4.20;;;1.80;;
12703;SDS011;6416;52.182;7.650;2023-03-23T08:25:38;3.43;;;1.73;;
12703;SDS011;6416;52.182;7.650;2023-03-23T08:28:03;3.33;;;2.00;;
12703;SDS011;6416;52.182;7.650;2023-03-23T08:30:29;2.13;;;1.80;;
12703;SDS011;6416;52.182;7.650;2023-03-23T08:32:56;4.67;;;2.13;;
12703;SDS011;6416;52.182;7.650;2023-03-23T08:35:24;3.47;;;2.40;;
12703;SDS011;6416;52.182;7.650;2023-03-23T08:37:50;4.23;;;1.90;;
12703;SDS011;6416;52.182;7.650;2023-03-23T08:40:15;3.73;;;1.87;;
12703;SDS011;6416;52.182;7.650;2023-03-23T08:42:42;2.97;;;1.83;;
12703;SDS011;6416;52.182;7.650;2023-03-23T08:45:09;3.23;;;1.80;;
12703;SDS011;6416;52.182;7.650;2023-03-23T08:47:37;4.40;;;1.70;;
12703;SDS011;6416;52.182;7.650;2023-03-23T08:50:06;2.93;;;1.67;;
12703;SDS011;6416;52.182;7.650;2023-03-23T08:52:33;5.03;;;2.10;;
12703;SDS011;6416;52.182;7.650;2023-03-23T08:54:59;3.43;;;2.27;;
12703;SDS011;6416;52.182;7.650;2023-03-23T08:57:25;4.27;;;2.00;;
12703;SDS011;6416;52.182;7.650;2023-03-23T08:59:51;3.97;;;1.70;;
12703;SDS011;6416;52.182;7.650;2023-03-23T09:02:17;3.73;;;2.00;;
12703;SDS011;6416;52.182;7.650;2023-03-23T09:04:42;2.57;;;1.70;;
12703;SDS011;6416;52.182;7.650;2023-03-23T09:07:09;3.57;;;1.70;;
12703;SDS011;6416;52.182;7.650;2023-03-23T09:09:35;3.50;;;1.93;;
12703;SDS011;6416;52.182;7.650;2023-03-23T09:12:00;3.20;;;1.90;;
12703;SDS011;6416;52.182;7.650;2023-03-23T09:14:26;1.97;;;1.47;;
12703;SDS011;6416;52.182;7.650;2023-03-23T09:16:52;3.13;;;2.07;;
12703;SDS011;6416;52.182;7.650;2023-03-23T09:19:17;5.30;;;1.93;;
12703;SDS011;6416;52.182;7.650;2023-03-23T09:21:43;4.40;;;1.80;;
12703;SDS011;6416;52.182;7.650;2023-03-23T09:24:08;3.57;;;1.83;;
12703;SDS011;6416;52.182;7.650;2023-03-23T09:26:34;3.03;;;1.43;;
12703;SDS011;6416;52.182;7.650;2023-03-23T09:28:59;5.43;;;1.90;;
12703;SDS011;6416;52.182;7.650;2023-03-23T09:31:25;2.50;;;1.77;;
12703;SDS011;6416;52.182;7.650;2023-03-23T09:33:50;3.53;;;1.53;;
12703;SDS011;6416;52.182;7.650;2023-03-23T09:36:16;3.23;;;1.53;;
12703;SDS011;6416;52.182;7.650;2023-03-23T09:38:41;2.80;;;1.60;;
12703;SDS011;6416;52.182;7.650;2023-03-23T09:46:39;3.90;;;1.97;;
12703;SDS011;6416;52.182;7.650;2023-03-23T09:49:12;3.90;;;1.87;;
12703;SDS011;6416;52.182;7.650;2023-03-23T09:51:49;4.23;;;1.70;;
12703;SDS011;6416;52.182;7.650;2023-03-23T09:54:37;2.60;;;1.57;;
12703;SDS011;6416;52.182;7.650;2023-03-23T09:57:10;3.40;;;1.20;;
12703;SDS011;6416;52.182;7.650;2023-03-23T09:59:46;1.57;;;1.10;;
12703;SDS011;6416;52.182;7.650;2023-03-23T10:02:24;1.13;;;0.93;;
12703;SDS011;6416;52.182;7.650;2023-03-23T10:04:56;1.17;;;0.70;;
12703;SDS011;6416;52.182;7.650;2023-03-23T10:07:43;0.90;;;0.70;;
12703;SDS011;6416;52.182;7.650;2023-03-23T10:10:11;1.13;;;0.70;;
12703;SDS011;6416;52.182;7.650;2023-03-23T10:13:00;1.93;;;0.80;;
12703;SDS011;6416;52.182;7.650;2023-03-23T10:15:33;1.80;;;0.90;;
12703;SDS011;6416;52.182;7.650;2023-03-23T10:18:02;1.57;;;0.90;;
12703;SDS011;6416;52.182;7.650;2023-03-23T10:28:43;1.10;;;0.70;;
12703;SDS011;6416;52.182;7.650;2023-03-23T10:31:13;1.53;;;0.90;;
12703;SDS011;6416;52.182;7.650;2023-03-23T10:33:43;0.93;;;0.83;;
12703;SDS011;6416;52.182;7.650;2023-03-23T10:36:16;2.17;;;0.93;;
12703;SDS011;6416;52.182;7.650;2023-03-23T10:41:35;0.97;;;0.80;;
12703;SDS011;6416;52.182;7.650;2023-03-23T10:44:01;1.13;;;0.80;;
12703;SDS011;6416;52.182;7.650;2023-03-23T10:49:06;1.07;;;0.70;;
12703;SDS011;6416;52.182;7.650;2023-03-23T10:51:36;1.27;;;0.77;;
12703;SDS011;6416;52.182;7.650;2023-03-23T10:54:05;1.40;;;0.80;;
12703;SDS011;6416;52.182;7.650;2023-03-23T10:56:35;0.90;;;0.80;;
12703;SDS011;6416;52.182;7.650;2023-03-23T10:59:15;1.00;;;0.80;;
12703;SDS011;6416;52.182;7.650;2023-03-23T11:01:52;1.67;;;0.90;;
12703;SDS011;6416;52.182;7.650;2023-03-23T11:04:20;2.33;;;1.00;;
12703;SDS011;6416;52.182;7.650;2023-03-23T11:06:48;1.60;;;0.90;;
12703;SDS011;6416;52.182;7.650;2023-03-23T11:09:18;1.40;;;0.80;;
12703;SDS011;6416;52.182;7.650;2023-03-23T11:11:49;1.13;;;0.83;;
12703;SDS011;6416;52.182;7.650;2023-03-23T11:14:26;1.00;;;0.90;;
12703;SDS011;6416;52.182;7.650;2023-03-23T11:16:54;1.73;;;1.20;;
12703;SDS011;6416;52.182;7.650;2023-03-23T11:19:29;1.40;;;1.03;;
12703;SDS011;6416;52.182;7.650;2023-03-23T11:22:07;3.27;;;1.00;;
12703;SDS011;6416;52.182;7.650;2023-03-23T11:24:42;1.17;;;0.83;;
12703;SDS011;6416;52.182;7.650;2023-03-23T11:27:10;3.37;;;1.10;;
12703;SDS011;6416;52.182;7.650;2023-03-23T11:29:47;1.37;;;0.93;;
12703;SDS011;6416;52.182;7.650;2023-03-23T11:32:15;1.50;;;0.87;;
12703;SDS011;6416;52.182;7.650;2023-03-23T11:34:42;1.37;;;0.80;;
12703;SDS011;6416;52.182;7.650;2023-03-23T11:37:11;1.97;;;0.80;;
12703;SDS011;6416;52.182;7.650;2023-03-23T11:39:57;1.90;;;0.83;;
12703;SDS011;6416;52.182;7.650;2023-03-23T11:42:26;2.37;;;1.07;;
12703;SDS011;6416;52.182;7.650;2023-03-23T11:51:16;3.20;;;1.00;;
12703;SDS011;6416;52.182;7.650;2023-03-23T11:56:31;1.13;;;0.88;;
12703;SDS011;6416;52.182;7.650;2023-03-23T11:58:59;1.50;;;0.90;;
12703;SDS011;6416;52.182;7.650;2023-03-23T12:04:13;1.55;;;0.90;;
12703;SDS011;6416;52.182;7.650;2023-03-23T12:17:46;2.42;;;1.00;;
12703;SDS011;6416;52.182;7.650;2023-03-23T12:30:54;0.77;;;0.60;;
12703;SDS011;6416;52.182;7.650;2023-03-23T12:33:43;1.30;;;1.10;;
12703;SDS011;6416;52.182;7.650;2023-03-23T12:39:10;1.58;;;0.75;;
12703;SDS011;6416;52.182;7.650;2023-03-23T12:42:01;2.00;;;1.08;;
12703;SDS011;6416;52.182;7.650;2023-03-23T12:44:47;2.17;;;0.85;;
12703;SDS011;6416;52.182;7.650;2023-03-23T12:49:50;1.90;;;1.10;;
12703;SDS011;6416;52.182;7.650;2023-03-23T12:54:51;1.50;;;0.85;;
12703;SDS011;6416;52.182;7.650;2023-03-23T12:57:53;1.42;;;0.70;;
12703;SDS011;6416;52.182;7.650;2023-03-23T13:00:47;3.53;;;0.90;;
12703;SDS011;6416;52.182;7.650;2023-03-23T13:06:09;1.27;;;0.88;;
12703;SDS011;6416;52.182;7.650;2023-03-23T13:08:55;1.90;;;1.10;;
12703;SDS011;6416;52.182;7.650;2023-03-23T13:11:32;1.13;;;0.95;;
12703;SDS011;6416;52.182;7.650;2023-03-23T13:14:13;1.58;;;0.90;;
12703;SDS011;6416;52.182;7.650;2023-03-23T13:23:01;3.17;;;1.05;;
12703;SDS011;6416;52.182;7.650;2023-03-23T13:28:24;2.58;;;0.82;;
12703;SDS011;6416;52.182;7.650;2023-03-23T13:30:56;1.63;;;1.10;;
12703;SDS011;6416;52.182;7.650;2023-03-23T13:33:31;1.40;;;1.08;;
12703;SDS011;6416;52.182;7.650;2023-03-23T13:36:08;2.08;;;1.10;;
12703;SDS011;6416;52.182;7.650;2023-03-23T13:38:36;3.17;;;1.23;;
12703;SDS011;6416;52.182;7.650;2023-03-23T13:41:06;2.47;;;0.82;;
12703;SDS011;6416;52.182;7.650;2023-03-23T13:43:37;1.38;;;1.08;;
12703;SDS011;6416;52.182;7.650;2023-03-23T13:48:51;3.17;;;0.80;;
12703;SDS011;6416;52.182;7.650;2023-03-23T14:05:11;3.33;;;1.10;;
12703;SDS011;6416;52.182;7.650;2023-03-23T14:08:36;2.05;;;1.00;;
12703;SDS011;6416;52.182;7.650;2023-03-23T14:13:16;1.90;;;1.02;;
12703;SDS011;6416;52.182;7.650;2023-03-23T14:15:56;2.00;;;1.10;;
12703;SDS011;6416;52.182;7.650;2023-03-23T14:18:31;2.45;;;1.33;;
12703;SDS011;6416;52.182;7.650;2023-03-23T14:21:13;1.33;;;0.98;;
12703;SDS011;6416;52.182;7.650;2023-03-23T14:24:02;3.22;;;1.40;;
12703;SDS011;6416;52.182;7.650;2023-03-23T14:26:28;1.30;;;0.95;;
12703;SDS011;6416;52.182;7.650;2023-03-23T14:28:54;2.40;;;1.13;;
12703;SDS011;6416;52.182;7.650;2023-03-23T14:31:20;2.42;;;1.02;;
12703;SDS011;6416;52.182;7.650;2023-03-23T14:33:51;1.10;;;0.80;;
12703;SDS011;6416;52.182;7.650;2023-03-23T14:36:19;2.97;;;1.13;;
12703;SDS011;6416;52.182;7.650;2023-03-23T14:39:01;1.73;;;1.10;;
12703;SDS011;6416;52.182;7.650;2023-03-23T14:41:30;3.25;;;0.90;;
12703;SDS011;6416;52.182;7.650;2023-03-23T14:43:56;1.92;;;1.10;;
12703;SDS011;6416;52.182;7.650;2023-03-23T14:46:25;2.47;;;1.10;;
12703;SDS011;6416;52.182;7.650;2023-03-23T14:48:51;4.25;;;1.40;;
12703;SDS011;6416;52.182;7.650;2023-03-23T14:51:18;1.48;;;1.20;;
12703;SDS011;6416;52.182;7.650;2023-03-23T14:53:44;2.08;;;1.52;;
12703;SDS011;6416;52.182;7.650;2023-03-23T14:56:17;1.48;;;1.00;;
12703;SDS011;6416;52.182;7.650;2023-03-23T14:58:46;1.48;;;1.38;;
12703;SDS011;6416;52.182;7.650;2023-03-23T15:01:32;1.92;;;1.38;;
12703;SDS011;6416;52.182;7.650;2023-03-23T15:04:42;4.55;;;1.52;;
12703;SDS011;6416;52.182;7.650;2023-03-23T15:06:55;2.20;;;1.80;;
12703;SDS011;6416;52.182;7.650;2023-03-23T15:09:25;2.25;;;1.58;;
12703;SDS011;6416;52.182;7.650;2023-03-23T15:11:52;2.22;;;1.70;;
12703;SDS011;6416;52.182;7.650;2023-03-23T15:14:22;1.98;;;1.42;;
12703;SDS011;6416;52.182;7.650;2023-03-23T15:16:51;1.85;;;1.60;;
12703;SDS011;6416;52.182;7.650;2023-03-23T15:19:23;3.10;;;1.70;;
12703;SDS011;6416;52.182;7.650;2023-03-23T15:21:54;2.03;;;1.70;;
12703;SDS011;6416;52.182;7.650;2023-03-23T15:24:42;1.80;;;1.60;;
12703;SDS011;6416;52.182;7.650;2023-03-23T15:29:45;2.25;;;1.48;;
12703;SDS011;6416;52.182;7.650;2023-03-23T15:32:26;4.00;;;1.90;;
12703;SDS011;6416;52.182;7.650;2023-03-23T15:35:11;1.87;;;1.33;;
12703;SDS011;6416;52.182;7.650;2023-03-23T15:37:42;1.73;;;1.30;;
12703;SDS011;6416;52.182;7.650;2023-03-23T15:40:16;1.67;;;1.47;;
12703;SDS011;6416;52.182;7.650;2023-03-23T15:42:44;1.58;;;1.20;;
12703;SDS011;6416;52.182;7.650;2023-03-23T15:47:36;1.25;;;0.93;;
12703;SDS011;6416;52.182;7.650;2023-03-23T15:50:15;2.53;;;1.07;;
12703;SDS011;6416;52.182;7.650;2023-03-23T15:52:41;2.43;;;1.20;;
12703;SDS011;6416;52.182;7.650;2023-03-23T15:57:46;3.17;;;1.50;;
12703;SDS011;6416;52.182;7.650;2023-03-23T16:00:12;1.60;;;1.33;;
12703;SDS011;6416;52.182;7.650;2023-03-23T16:02:38;4.70;;;1.70;;
12703;SDS011;6416;52.182;7.650;2023-03-23T16:05:04;1.70;;;1.20;;
12703;SDS011;6416;52.182;7.650;2023-03-23T16:07:29;2.90;;;1.87;;
12703;SDS011;6416;52.182;7.650;2023-03-23T16:09:55;3.53;;;2.80;;
12703;SDS011;6416;52.182;7.650;2023-03-23T16:12:20;2.75;;;2.20;;
12703;SDS011;6416;52.182;7.650;2023-03-23T16:14:46;6.17;;;2.50;;
12703;SDS011;6416;52.182;7.650;2023-03-23T16:17:13;4.15;;;2.90;;
12703;SDS011;6416;52.182;7.650;2023-03-23T16:19:41;5.07;;;3.03;;
12703;SDS011;6416;52.182;7.650;2023-03-23T16:22:07;6.80;;;4.00;;
12703;SDS011;6416;52.182;7.650;2023-03-23T16:24:33;5.90;;;3.20;;
12703;SDS011;6416;52.182;7.650;2023-03-23T16:26:59;4.47;;;3.03;;
12703;SDS011;6416;52.182;7.650;2023-03-23T16:29:36;4.60;;;2.63;;
12703;SDS011;6416;52.182;7.650;2023-03-23T16:32:01;2.33;;;1.75;;
12703;SDS011;6416;52.182;7.650;2023-03-23T16:34:27;4.80;;;2.60;;
12703;SDS011;6416;52.182;7.650;2023-03-23T16:36:53;3.33;;;2.70;;
12703;SDS011;6416;52.182;7.650;2023-03-23T16:39:18;3.87;;;2.90;;
12703;SDS011;6416;52.182;7.650;2023-03-23T16:41:44;3.53;;;2.30;;
12703;SDS011;6416;52.182;7.650;2023-03-23T16:44:09;2.97;;;2.07;;
12703;SDS011;6416;52.182;7.650;2023-03-23T16:46:35;2.27;;;1.90;;
12703;SDS011;6416;52.182;7.650;2023-03-23T16:49:03;3.17;;;1.80;;
12703;SDS011;6416;52.182;7.650;2023-03-23T16:51:28;2.77;;;1.90;;
12703;SDS011;6416;52.182;7.650;2023-03-23T16:53:54;3.07;;;2.67;;
12703;SDS011;6416;52.182;7.650;2023-03-23T16:56:19;3.77;;;2.20;;
12703;SDS011;6416;52.182;7.650;2023-03-23T16:58:45;2.50;;;1.87;;
12703;SDS011;6416;52.182;7.650;2023-03-23T17:01:10;3.17;;;1.90;;
12703;SDS011;6416;52.182;7.650;2023-03-23T17:03:36;3.47;;;2.50;;
12703;SDS011;6416;52.182;7.650;2023-03-23T17:06:01;2.43;;;1.77;;
12703;SDS011;6416;52.182;7.650;2023-03-23T17:08:27;2.53;;;2.17;;
12703;SDS011;6416;52.182;7.650;2023-03-23T17:10:52;4.13;;;2.47;;
12703;SDS011;6416;52.182;7.650;2023-03-23T17:13:18;3.03;;;2.73;;
12703;SDS011;6416;52.182;7.650;2023-03-23T17:15:44;4.60;;;3.10;;
12703;SDS011;6416;52.182;7.650;2023-03-23T17:18:10;4.70;;;4.30;;